createdAt,value
2019-04-29T00:01:45.969Z,7.20
2019-04-29T00:04:13.526Z,7.20
2019-04-29T00:06:41.091Z,7.30
2019-04-29T00:09:11.228Z,7.20
2019-04-29T00:11:38.953Z,7.10
2019-04-29T00:14:07.370Z,7.10
2019-04-29T00:16:36.556Z,7.00
2019-04-29T00:19:05.723Z,7.00
2019-04-29T00:21:33.329Z,6.90
2019-04-29T00:24:03.896Z,6.90
2019-04-29T00:26:30.399Z,7.00
2019-04-29T00:28:57.964Z,7.00
2019-04-29T00:31:25.490Z,7.00
2019-04-29T00:33:53.050Z,7.00
2019-04-29T00:36:22.246Z,6.90
2019-04-29T00:38:57.400Z,6.90
2019-04-29T00:41:26.609Z,6.90
2019-04-29T00:43:58.665Z,6.80
2019-04-29T00:46:26.220Z,6.70
2019-04-29T00:48:53.755Z,6.70
2019-04-29T00:51:21.330Z,6.50
2019-04-29T00:53:50.507Z,6.50
2019-04-29T00:56:18.038Z,6.30
2019-04-29T00:58:45.590Z,6.30
2019-04-29T01:01:14.781Z,6.20
2019-04-29T01:03:42.305Z,6.20
2019-04-29T01:06:09.974Z,6.20
2019-04-29T01:08:37.502Z,6.10
2019-04-29T01:11:05.072Z,6.00
2019-04-29T01:13:32.601Z,6.00
2019-04-29T01:16:00.128Z,5.90
2019-04-29T01:18:27.703Z,5.80
2019-04-29T01:20:55.306Z,5.80
2019-04-29T01:23:22.837Z,5.90
2019-04-29T01:25:52.022Z,5.80
2019-04-29T01:28:24.103Z,5.80
2019-04-29T01:30:52.936Z,5.80
2019-04-29T01:33:20.486Z,5.70
2019-04-29T01:35:49.688Z,5.60
2019-04-29T01:38:17.254Z,5.50
2019-04-29T01:41:01.435Z,5.60
2019-04-29T01:43:46.980Z,5.60
2019-04-29T01:46:14.535Z,5.60
2019-04-29T01:48:42.096Z,5.50
2019-04-29T01:51:09.792Z,5.40
2019-04-29T01:53:37.319Z,5.30
2019-04-29T01:56:04.918Z,5.30
2019-04-29T01:58:32.560Z,5.30
2019-04-29T02:01:00.133Z,5.30
2019-04-29T02:03:27.663Z,5.30
2019-04-29T02:05:55.228Z,5.30
2019-04-29T02:08:22.797Z,5.30
2019-04-29T02:10:50.357Z,5.20
2019-04-29T02:13:17.892Z,5.20
2019-04-29T02:15:45.443Z,5.20
2019-04-29T02:18:12.984Z,5.20
2019-04-29T02:20:40.587Z,5.20
2019-04-29T02:23:09.756Z,5.10
2019-04-29T02:25:38.932Z,5.10
2019-04-29T02:28:06.500Z,5.10
2019-04-29T02:30:40.480Z,5.00
2019-04-29T02:33:08.007Z,5.00
2019-04-29T02:35:35.577Z,4.90
2019-04-29T02:38:04.175Z,4.90
2019-04-29T02:40:36.103Z,4.90
2019-04-29T02:43:05.315Z,4.80
2019-04-29T02:45:34.197Z,4.90
2019-04-29T02:48:01.774Z,4.80
2019-04-29T02:50:29.385Z,4.80
2019-04-29T02:52:56.919Z,4.70
2019-04-29T02:55:26.125Z,4.60
2019-04-29T02:57:55.292Z,4.70
2019-04-29T03:00:40.952Z,4.80
2019-04-29T03:03:12.868Z,4.70
2019-04-29T03:05:42.069Z,4.70
2019-04-29T03:08:09.647Z,4.70
2019-04-29T03:10:37.168Z,4.70
2019-04-29T03:13:04.794Z,4.70
2019-04-29T03:15:33.137Z,4.60
2019-04-29T03:18:00.733Z,4.60
2019-04-29T03:20:29.936Z,4.70
2019-04-29T03:23:07.971Z,4.60
2019-04-29T03:25:35.595Z,4.60
2019-04-29T03:28:03.140Z,4.50
2019-04-29T03:30:30.675Z,4.40
2019-04-29T03:32:58.237Z,4.40
2019-04-29T03:35:25.837Z,4.40
2019-04-29T03:37:53.366Z,4.40
2019-04-29T03:40:20.971Z,4.50
2019-04-29T03:42:48.559Z,4.60
2019-04-29T03:45:16.112Z,4.60
2019-04-29T03:47:43.655Z,4.50
2019-04-29T03:50:11.225Z,4.50
2019-04-29T03:52:38.760Z,4.50
2019-04-29T03:55:06.282Z,4.50
2019-04-29T03:57:35.488Z,4.50
2019-04-29T04:00:04.628Z,4.50
2019-04-29T04:02:36.743Z,4.50
2019-04-29T04:05:06.822Z,4.40
2019-04-29T04:07:41.775Z,4.50
2019-04-29T04:10:09.502Z,4.50
2019-04-29T04:12:37.031Z,4.40
2019-04-29T04:15:07.676Z,4.50
2019-04-29T04:17:46.051Z,4.50
2019-04-29T04:20:14.069Z,4.60
2019-04-29T04:22:48.225Z,4.60
2019-04-29T04:25:18.745Z,4.50
2019-04-29T04:27:49.058Z,4.50
2019-04-29T04:30:16.882Z,4.40
2019-04-29T04:32:44.429Z,4.50
2019-04-29T04:35:11.980Z,4.50
2019-04-29T04:37:39.530Z,4.40
2019-04-29T04:40:07.592Z,4.40
2019-04-29T04:42:35.189Z,4.50
2019-04-29T04:45:02.817Z,4.60
2019-04-29T04:47:30.357Z,4.70
2019-04-29T04:49:58.004Z,4.80
2019-04-29T04:52:25.528Z,4.90
2019-04-29T04:54:54.960Z,5.00
2019-04-29T04:57:22.515Z,5.00
2019-04-29T04:59:50.042Z,5.10
2019-04-29T05:02:17.614Z,5.20
2019-04-29T05:04:45.174Z,5.20
2019-04-29T05:07:12.706Z,5.30
2019-04-29T05:09:40.270Z,5.30
2019-04-29T05:12:07.875Z,5.40
2019-04-29T05:14:35.456Z,5.40
2019-04-29T05:17:03.096Z,5.60
2019-04-29T05:19:30.629Z,5.70
2019-04-29T05:21:58.211Z,5.80
2019-04-29T05:24:25.780Z,5.90
2019-04-29T05:26:53.316Z,6.00
2019-04-29T05:29:20.848Z,6.00
2019-04-29T05:31:48.434Z,6.10
2019-04-29T05:34:16.330Z,6.20
2019-04-29T05:36:48.472Z,6.40
2019-04-29T05:39:29.686Z,6.40
2019-04-29T05:41:57.347Z,6.40
2019-04-29T05:44:29.846Z,6.50
2019-04-29T05:47:01.724Z,6.50
2019-04-29T05:49:37.342Z,6.60
2019-04-29T05:52:04.485Z,6.70
2019-04-29T05:54:33.833Z,6.70
2019-04-29T05:57:01.462Z,6.70
2019-04-29T05:59:29.004Z,6.80
2019-04-29T06:01:56.588Z,6.80
2019-04-29T06:04:24.111Z,6.80
2019-04-29T06:06:51.741Z,6.70
2019-04-29T06:09:19.303Z,6.90
2019-04-29T06:11:46.845Z,7.00
2019-04-29T06:14:14.521Z,7.20
2019-04-29T06:16:42.189Z,7.20
2019-04-29T06:19:09.858Z,7.30
2019-04-29T06:21:37.400Z,7.30
2019-04-29T06:24:06.326Z,7.40
2019-04-29T06:26:34.078Z,7.40
2019-04-29T06:29:01.612Z,7.50
2019-04-29T06:31:29.169Z,7.60
2019-04-29T06:34:00.709Z,7.60
2019-04-29T06:36:25.992Z,7.60
2019-04-29T06:38:53.517Z,7.70
2019-04-29T06:41:21.228Z,7.70
2019-04-29T06:43:52.029Z,7.80
2019-04-29T06:46:18.110Z,7.90
2019-04-29T06:48:45.664Z,7.90
2019-04-29T06:51:13.212Z,8.00
2019-04-29T06:53:40.810Z,8.10
2019-04-29T06:56:09.321Z,8.20
2019-04-29T06:58:38.397Z,8.30
2019-04-29T07:01:06.201Z,8.50
2019-04-29T07:03:33.898Z,8.50
2019-04-29T07:06:01.449Z,8.50
2019-04-29T07:08:29.008Z,8.60
2019-04-29T07:11:01.188Z,8.70
2019-04-29T07:13:25.979Z,8.70
2019-04-29T07:15:53.518Z,8.80
2019-04-29T07:18:21.067Z,8.80
2019-04-29T07:20:48.629Z,8.80
2019-04-29T07:23:16.158Z,8.90
2019-04-29T07:25:43.705Z,8.90
2019-04-29T07:28:13.749Z,9.00
2019-04-29T07:31:00.459Z,9.20
2019-04-29T07:33:09.770Z,9.30
2019-04-29T07:35:38.321Z,9.40
2019-04-29T07:38:08.629Z,9.50
2019-04-29T07:40:38.885Z,9.50
2019-04-29T07:43:07.804Z,9.50
2019-04-29T07:45:43.996Z,9.60
2019-04-29T07:48:06.296Z,9.80
2019-04-29T07:50:34.325Z,9.80
2019-04-29T07:53:01.864Z,9.90
2019-04-29T07:55:30.802Z,9.90
2019-04-29T07:57:58.750Z,10.10
2019-04-29T08:00:32.820Z,10.10
2019-04-29T08:03:00.749Z,10.20
2019-04-29T08:05:28.560Z,10.30
2019-04-29T08:07:56.395Z,10.40
2019-04-29T08:10:27.659Z,10.50
2019-04-29T08:12:53.438Z,10.60
2019-04-29T08:15:21.004Z,10.60
2019-04-29T08:17:51.301Z,10.70
2019-04-29T08:20:17.803Z,10.80
2019-04-29T08:22:45.473Z,11.00
2019-04-29T08:25:13.053Z,11.10
2019-04-29T08:27:43.623Z,11.20
2019-04-29T08:30:11.229Z,11.20
2019-04-29T08:32:39.247Z,11.30
2019-04-29T08:35:06.798Z,11.40
2019-04-29T08:37:34.340Z,11.40
2019-04-29T08:40:15.467Z,11.50
2019-04-29T08:42:37.229Z,11.60
2019-04-29T08:45:12.758Z,11.70
2019-04-29T08:47:44.833Z,11.70
2019-04-29T08:50:12.381Z,11.90
2019-04-29T08:52:59.360Z,12.00
2019-04-29T08:55:30.893Z,12.20
2019-04-29T08:57:56.177Z,12.10
2019-04-29T09:00:23.860Z,12.20
2019-04-29T09:02:51.396Z,12.30
2019-04-29T09:05:18.939Z,12.40
2019-04-29T09:07:46.512Z,12.40
2019-04-29T09:10:14.093Z,12.60
2019-04-29T09:12:41.650Z,12.70
2019-04-29T09:15:09.215Z,12.80
2019-04-29T09:17:36.776Z,13.00
2019-04-29T09:20:04.376Z,13.10
2019-04-29T09:22:33.724Z,13.20
2019-04-29T09:25:16.687Z,13.30
2019-04-29T09:27:46.231Z,13.30
2019-04-29T09:30:15.463Z,13.30
2019-04-29T09:32:43.008Z,13.40
2019-04-29T09:35:10.575Z,13.40
2019-04-29T09:37:38.114Z,13.40
2019-04-29T09:40:07.387Z,13.40
2019-04-29T09:42:50.155Z,13.60
2019-04-29T09:45:19.582Z,13.90
2019-04-29T09:47:45.999Z,13.90
2019-04-29T09:50:13.563Z,14.20
2019-04-29T09:52:41.116Z,14.40
2019-04-29T09:55:08.656Z,14.60
2019-04-29T09:57:36.228Z,14.80
2019-04-29T10:00:09.879Z,14.90
2019-04-29T10:02:51.114Z,15.20
2019-04-29T10:05:38.442Z,15.30
2019-04-29T10:08:06.030Z,15.40
2019-04-29T10:10:33.626Z,15.50
2019-04-29T10:13:01.198Z,15.30
2019-04-29T10:15:45.696Z,15.30
2019-04-29T10:18:29.797Z,15.30
2019-04-29T10:20:58.054Z,15.10
2019-04-29T10:23:25.607Z,15.30
2019-04-29T10:25:53.131Z,15.20
2019-04-29T10:28:20.706Z,15.20
2019-04-29T10:30:48.234Z,15.20
2019-04-29T10:33:17.659Z,15.20
2019-04-29T10:35:46.183Z,15.20
2019-04-29T10:38:13.765Z,15.30
2019-04-29T10:40:45.506Z,15.20
2019-04-29T10:43:20.419Z,15.20
2019-04-29T10:46:08.664Z,14.90
2019-04-29T10:48:43.675Z,15.00
2019-04-29T10:51:12.670Z,15.40
2019-04-29T10:53:40.212Z,15.60
2019-04-29T10:56:07.767Z,15.70
2019-04-29T10:58:35.833Z,15.60
2019-04-29T11:01:15.747Z,15.80
2019-04-29T11:03:43.825Z,16.10
2019-04-29T11:06:11.535Z,16.30
2019-04-29T11:08:46.750Z,16.40
2019-04-29T11:11:22.718Z,16.40
2019-04-29T11:13:49.928Z,16.60
2019-04-29T11:16:14.599Z,16.70
2019-04-29T11:18:42.130Z,16.60
2019-04-29T11:21:09.666Z,16.50
2019-04-29T11:23:44.631Z,16.40
2019-04-29T11:26:25.807Z,16.40
2019-04-29T11:28:54.853Z,16.60
2019-04-29T11:31:22.572Z,16.70
2019-04-29T11:33:54.810Z,17.00
2019-04-29T11:36:24.011Z,17.10
2019-04-29T11:38:51.546Z,17.10
2019-04-29T11:41:20.078Z,17.10
2019-04-29T11:43:51.149Z,17.10
2019-04-29T11:46:20.927Z,17.20
2019-04-29T11:48:47.177Z,17.30
2019-04-29T11:51:16.356Z,17.40
2019-04-29T11:53:43.896Z,17.40
2019-04-29T11:56:11.451Z,17.50
2019-04-29T11:58:40.622Z,17.80
2019-04-29T12:01:10.394Z,18.00
2019-04-29T12:03:51.338Z,18.30
2019-04-29T12:06:20.865Z,18.30
2019-04-29T12:08:48.146Z,18.30
2019-04-29T12:11:16.738Z,18.10
2019-04-29T12:14:03.134Z,18.00
2019-04-29T12:16:31.546Z,18.20
2019-04-29T12:19:12.810Z,18.40
2019-04-29T12:21:42.187Z,18.30
2019-04-29T12:24:10.092Z,18.30
2019-04-29T12:26:42.848Z,18.30
2019-04-29T12:29:06.926Z,18.40
2019-04-29T12:31:36.104Z,18.60
2019-04-29T12:34:17.465Z,18.60
2019-04-29T12:36:55.895Z,18.70
2019-04-29T12:39:21.606Z,18.50
2019-04-29T12:42:04.518Z,18.90
2019-04-29T12:44:35.271Z,19.20
2019-04-29T12:47:04.934Z,19.20
2019-04-29T12:49:32.486Z,19.20
2019-04-29T12:52:00.047Z,19.30
2019-04-29T12:54:27.574Z,18.90
2019-04-29T12:56:55.154Z,18.70
2019-04-29T12:59:22.695Z,18.30
2019-04-29T13:02:01.353Z,18.20
2019-04-29T13:04:49.769Z,18.40
2019-04-29T13:07:20.934Z,18.50
2019-04-29T13:09:56.068Z,18.60
2019-04-29T13:12:23.627Z,18.60
2019-04-29T13:15:03.009Z,18.30
2019-04-29T13:17:30.381Z,18.40
2019-04-29T13:20:02.002Z,18.30
2019-04-29T13:22:29.770Z,18.20
2019-04-29T13:24:57.371Z,18.30
2019-04-29T13:27:25.756Z,18.20
2019-04-29T13:29:54.284Z,18.10
2019-04-29T13:32:25.473Z,18.00
2019-04-29T13:34:51.876Z,17.60
2019-04-29T13:37:20.008Z,17.30
2019-04-29T13:39:47.711Z,17.20
2019-04-29T13:42:15.952Z,16.80
2019-04-29T13:45:04.549Z,16.90
2019-04-29T13:47:31.034Z,16.80
2019-04-29T13:50:18.475Z,16.60
2019-04-29T13:52:35.499Z,16.60
2019-04-29T13:55:16.749Z,16.50
2019-04-29T13:57:32.449Z,16.50
2019-04-29T14:00:13.780Z,16.50
2019-04-29T14:02:42.965Z,16.40
2019-04-29T14:05:12.166Z,16.30
2019-04-29T14:07:39.868Z,16.40
2019-04-29T14:10:10.358Z,16.30
2019-04-29T14:13:05.078Z,16.30
2019-04-29T14:15:06.084Z,16.20
2019-04-29T14:17:35.628Z,16.10
2019-04-29T14:20:04.204Z,15.90
2019-04-29T14:22:31.834Z,15.90
2019-04-29T14:24:59.380Z,15.90
2019-04-29T14:27:26.969Z,15.70
2019-04-29T14:29:54.536Z,15.20
2019-04-29T14:32:33.368Z,14.90
2019-04-29T14:34:59.206Z,14.80
2019-04-29T14:37:26.748Z,14.70
2019-04-29T14:39:54.316Z,14.60
2019-04-29T14:42:25.653Z,14.50
2019-04-29T14:45:10.856Z,14.30
2019-04-29T14:47:45.959Z,14.10
2019-04-29T14:50:15.608Z,13.80
2019-04-29T14:52:44.809Z,13.50
2019-04-29T14:55:14.941Z,13.40
2019-04-29T14:57:42.343Z,13.20
2019-04-29T15:00:14.718Z,13.20
2019-04-29T15:02:42.515Z,13.10
2019-04-29T15:05:12.207Z,13.20
2019-04-29T15:07:39.471Z,13.20
2019-04-29T15:10:07.558Z,13.30
2019-04-29T15:12:51.220Z,13.30
2019-04-29T15:15:19.347Z,13.40
2019-04-29T15:17:48.516Z,13.40
2019-04-29T15:20:25.403Z,13.50
2019-04-29T15:22:52.691Z,13.40
2019-04-29T15:25:21.027Z,13.30
2019-04-29T15:27:49.522Z,13.30
2019-04-29T15:30:17.077Z,13.40
2019-04-29T15:32:44.621Z,13.40
2019-04-29T15:35:12.185Z,13.40
2019-04-29T15:37:39.744Z,13.50
2019-04-29T15:40:07.423Z,13.60
2019-04-29T15:42:37.932Z,13.70
2019-04-29T15:45:06.935Z,13.60
2019-04-29T15:47:34.524Z,13.60
2019-04-29T15:50:17.375Z,13.50
2019-04-29T15:52:31.407Z,13.60
2019-04-29T15:54:58.939Z,13.50
2019-04-29T15:57:26.779Z,13.40
2019-04-29T15:59:59.917Z,13.30
2019-04-29T16:02:23.789Z,13.20
2019-04-29T16:05:10.374Z,13.00
2019-04-29T16:07:40.304Z,12.90
2019-04-29T16:10:20.474Z,12.80
2019-04-29T16:12:51.023Z,12.80
2019-04-29T16:15:15.402Z,12.70
2019-04-29T16:17:42.951Z,12.70
2019-04-29T16:20:10.482Z,12.80
2019-04-29T16:22:39.274Z,12.80
2019-04-29T16:25:10.888Z,12.80
2019-04-29T16:27:41.640Z,12.80
2019-04-29T16:30:08.499Z,12.80
2019-04-29T16:32:41.987Z,12.70
2019-04-29T16:35:09.571Z,12.60
2019-04-29T16:37:37.118Z,12.60
2019-04-29T16:40:05.861Z,12.60
2019-04-29T16:42:35.054Z,12.50
2019-04-29T16:45:06.135Z,12.40
2019-04-29T16:47:31.846Z,12.40
2019-04-29T16:52:28.688Z,12.30
2019-04-29T16:54:59.088Z,12.20
2019-04-29T16:57:25.508Z,12.20
2019-04-29T16:59:53.061Z,12.10
2019-04-29T17:02:20.605Z,12.00
2019-04-29T17:04:48.169Z,12.00
2019-04-29T17:07:16.821Z,12.00
2019-04-29T17:09:49.232Z,11.90
2019-04-29T17:12:19.794Z,11.80
2019-04-29T17:15:02.902Z,11.80
2019-04-29T17:17:18.279Z,11.80
2019-04-29T17:19:45.839Z,11.80
2019-04-29T17:22:25.334Z,11.70
2019-04-29T17:24:42.966Z,11.80
2019-04-29T17:27:21.569Z,11.70
2019-04-29T17:30:04.058Z,11.60
2019-04-29T17:32:42.818Z,11.60
2019-04-29T17:35:02.805Z,11.60
2019-04-29T17:35:15.896Z,12.30
2019-04-29T17:37:32.159Z,11.50
2019-04-29T17:39:59.875Z,11.50
2019-04-29T17:42:29.102Z,11.40
2019-04-29T17:44:56.793Z,11.30
2019-04-29T17:47:42.513Z,11.20
2019-04-29T17:50:30.000Z,11.30
2019-04-29T17:52:50.307Z,11.20
2019-04-29T17:55:19.476Z,11.20
2019-04-29T17:57:48.667Z,11.10
2019-04-29T18:00:17.984Z,11.10
2019-04-29T18:03:05.292Z,11.10
2019-04-29T18:05:54.440Z,11.00
2019-04-29T18:08:14.210Z,10.90
2019-04-29T18:10:43.396Z,10.90
2019-04-29T18:13:12.284Z,10.80
2019-04-29T18:15:57.898Z,10.80
2019-04-29T18:18:17.029Z,10.70
2019-04-29T18:21:03.024Z,10.70
2019-04-29T18:23:32.522Z,10.60
2019-04-29T18:26:01.710Z,10.60
2019-04-29T18:28:29.331Z,10.60
2019-04-29T18:30:57.939Z,10.60
2019-04-29T18:33:30.082Z,10.50
2019-04-29T18:36:04.186Z,10.50
2019-04-29T18:38:26.275Z,10.50
2019-04-29T18:40:53.442Z,10.50
2019-04-29T18:43:23.088Z,10.50
2019-04-29T18:45:56.122Z,10.50
2019-04-29T18:48:21.647Z,10.40
2019-04-29T18:50:48.810Z,10.30
2019-04-29T18:53:16.360Z,10.30
2019-04-29T18:55:45.035Z,10.30
2019-04-29T18:58:12.742Z,10.20
2019-04-29T19:00:40.290Z,10.20
2019-04-29T19:03:07.843Z,10.10
2019-04-29T19:05:45.693Z,10.20
2019-04-29T19:08:14.893Z,10.20
2019-04-29T19:10:42.598Z,10.20
2019-04-29T19:13:16.537Z,10.20
2019-04-29T19:15:40.024Z,10.10
2019-04-29T19:18:12.437Z,10.10
2019-04-29T19:20:37.995Z,10.10
2019-04-29T19:23:09.930Z,10.10
2019-04-29T19:25:35.417Z,10.10
2019-04-29T19:28:12.602Z,10.10
2019-04-29T19:30:32.396Z,10.10
2019-04-29T19:33:01.809Z,10.10
2019-04-29T19:35:29.424Z,10.00
2019-04-29T19:37:58.534Z,10.00
2019-04-29T19:40:30.516Z,10.10
2019-04-29T19:42:55.876Z,10.00
2019-04-29T19:45:23.574Z,10.00
2019-04-29T19:47:53.359Z,10.00
2019-04-29T19:50:20.406Z,10.00
2019-04-29T19:52:47.952Z,10.00
2019-04-29T19:55:15.612Z,9.90
2019-04-29T19:57:47.968Z,9.90
2019-04-29T20:00:12.923Z,9.90
2019-04-29T20:02:46.481Z,9.90
2019-04-29T20:05:16.455Z,9.90
2019-04-29T20:07:46.750Z,9.80
2019-04-29T20:10:14.529Z,9.80
2019-04-29T20:12:46.184Z,9.80
2019-04-29T20:15:12.169Z,9.80
2019-04-29T20:17:49.424Z,9.70
2019-04-29T20:20:18.554Z,9.70
2019-04-29T20:22:50.989Z,9.70
2019-04-29T20:25:16.445Z,9.80
2019-04-29T20:27:45.861Z,9.70
2019-04-29T20:30:18.842Z,9.60
2019-04-29T20:32:43.103Z,9.70
2019-04-29T20:35:11.052Z,9.70
2019-04-29T20:37:38.952Z,9.70
2019-04-29T20:40:06.805Z,9.70
2019-04-29T20:42:35.842Z,9.60
2019-04-29T20:45:05.381Z,9.60
2019-04-29T20:47:40.492Z,9.60
2019-04-29T20:50:03.725Z,9.60
2019-04-29T20:52:33.213Z,9.60
2019-04-29T20:55:02.696Z,9.60
2019-04-29T20:57:30.440Z,9.50
2019-04-29T20:59:58.267Z,9.50
2019-04-29T21:02:31.208Z,9.50
2019-04-29T21:04:57.749Z,9.50
2019-04-29T21:07:25.728Z,9.50
2019-04-29T21:09:53.389Z,9.50
2019-04-29T21:12:22.563Z,9.50
2019-04-29T21:14:56.914Z,9.50
2019-04-29T21:17:30.672Z,9.50
2019-04-29T21:19:53.568Z,9.40
2019-04-29T21:22:23.608Z,9.40
2019-04-29T21:24:53.771Z,9.50
2019-04-29T21:27:22.614Z,9.50
2019-04-29T21:29:49.784Z,9.50
2019-04-29T21:32:17.506Z,9.50
2019-04-29T21:34:49.394Z,9.50
2019-04-29T21:37:25.816Z,9.50
2019-04-29T21:39:58.295Z,9.50
2019-04-29T21:42:39.722Z,9.50
2019-04-29T21:45:08.750Z,9.60
2019-04-29T21:47:42.645Z,9.60
2019-04-29T21:50:05.805Z,9.60
2019-04-29T21:52:33.375Z,9.50
2019-04-29T21:55:00.904Z,9.50
2019-04-29T21:57:28.518Z,9.50
2019-04-29T21:59:56.048Z,9.50
2019-04-29T22:02:25.922Z,9.50
2019-04-29T22:04:53.048Z,9.50
2019-04-29T22:07:20.655Z,9.50
2019-04-29T22:09:50.227Z,9.50
2019-04-29T22:12:20.128Z,9.50
2019-04-29T22:14:52.482Z,9.40
2019-04-29T22:17:16.006Z,9.50
2019-04-29T22:19:45.124Z,9.50
2019-04-29T22:22:12.793Z,9.40
2019-04-29T22:24:40.315Z,9.50
2019-04-29T22:27:08.840Z,9.50
2019-04-29T22:29:37.470Z,9.50
2019-04-29T22:32:09.281Z,9.50
2019-04-29T22:34:35.532Z,9.50
2019-04-29T22:37:03.082Z,9.50
2019-04-29T22:39:31.570Z,9.50
2019-04-29T22:42:03.712Z,9.50
2019-04-29T22:44:31.310Z,9.50
2019-04-29T22:46:58.842Z,9.50
2019-04-29T22:49:29.186Z,9.50
2019-04-29T22:51:57.134Z,9.50
2019-04-29T22:54:24.999Z,9.50
2019-04-29T22:56:56.008Z,9.50
2019-04-29T22:59:21.856Z,9.50
2019-04-29T23:01:50.663Z,9.50
2019-04-29T23:04:18.339Z,9.50
2019-04-29T23:06:48.011Z,9.50
2019-04-29T23:09:15.154Z,9.40
2019-04-29T23:11:42.713Z,9.50
2019-04-29T23:14:10.389Z,9.50
2019-04-29T23:16:38.000Z,9.50
2019-04-29T23:19:05.595Z,9.40
2019-04-29T23:21:51.266Z,9.40
2019-04-29T23:24:35.554Z,9.40
2019-04-29T23:27:03.135Z,9.40
2019-04-29T23:29:30.678Z,9.40
2019-04-29T23:31:59.782Z,9.40
2019-04-29T23:34:29.184Z,9.40
2019-04-29T23:36:56.837Z,9.50
2019-04-29T23:39:24.879Z,9.50
2019-04-29T23:41:52.599Z,9.40
2019-04-29T23:44:20.136Z,9.50
2019-04-29T23:46:47.708Z,9.40
2019-04-29T23:49:15.513Z,9.40
2019-04-29T23:51:43.106Z,9.40
2019-04-29T23:54:10.698Z,9.30
2019-04-29T23:56:58.250Z,9.30
2019-04-29T23:59:30.333Z,9.40
